Time;durP1;ratioP1;P1;durP2;ratioP2;P2;SDS_P1;SDS_P2;PMS_P1;PMS_P2;Temp;Humidity;BMP_temperature;BMP_pressure;BME280_temperature;BME280_humidity;BME280_pressure;Samples;Min_cycle;Max_cycle;Signal;HPM_P1;HPM_P2
2023/07/26 00:01:51;;;;;;;13.77;11.47;;;;;;;;;;5035458;28;20319;-77
2023/07/26 00:04:16;;;;;;;10.97;9.87;;;;;;;;;;5047650;28;20176;-77
2023/07/26 00:06:41;;;;;;;11.57;9.80;;;;;;;;;;5038390;28;20284;-77
2023/07/26 00:09:09;;;;;;;11.40;9.87;;;;;;;;;;5048024;28;20197;-77
2023/07/26 00:11:35;;;;;;;11.17;10.03;;;;;;;;;;5035490;28;20189;-77
2023/07/26 00:14:01;;;;;;;10.37;9.27;;;;;;;;;;5040708;28;20198;-77
2023/07/26 00:16:26;;;;;;;9.13;8.40;;;;;;;;;;5041046;28;20173;-77
2023/07/26 00:18:52;;;;;;;10.13;9.00;;;;;;;;;;5047100;28;20239;-77
2023/07/26 00:21:17;;;;;;;10.43;9.37;;;;;;;;;;5042354;28;20185;-77
2023/07/26 00:23:42;;;;;;;9.37;8.50;;;;;;;;;;5042244;28;20186;-77
2023/07/26 00:26:08;;;;;;;10.33;9.03;;;;;;;;;;5037973;28;20181;-76
2023/07/26 00:28:33;;;;;;;9.87;8.97;;;;;;;;;;5045203;28;20204;-75
2023/07/26 00:30:58;;;;;;;9.77;8.77;;;;;;;;;;5038637;28;20189;-76
2023/07/26 00:33:23;;;;;;;9.57;8.77;;;;;;;;;;5045209;28;20262;-76
2023/07/26 00:35:49;;;;;;;9.20;8.30;;;;;;;;;;5035508;28;20197;-76
2023/07/26 00:38:14;;;;;;;8.57;7.77;;;;;;;;;;5042522;28;20181;-76
2023/07/26 00:40:39;;;;;;;8.80;8.00;;;;;;;;;;5034358;28;20183;-77
2023/07/26 00:43:08;;;;;;;8.80;7.90;;;;;;;;;;5044316;28;20235;-76
2023/07/26 00:45:33;;;;;;;8.27;7.57;;;;;;;;;;5039112;28;20178;-76
2023/07/26 00:47:59;;;;;;;7.40;6.73;;;;;;;;;;5044850;28;20250;-76
2023/07/26 00:50:25;;;;;;;9.13;7.40;;;;;;;;;;5042821;28;20185;-79
2023/07/26 00:52:51;;;;;;;8.43;7.73;;;;;;;;;;5044976;28;20232;-76
2023/07/26 00:55:16;;;;;;;7.33;5.90;;;;;;;;;;5037315;28;20231;-77
2023/07/26 00:57:42;;;;;;;7.77;6.83;;;;;;;;;;5036620;28;20186;-76
2023/07/26 01:00:08;;;;;;;6.80;6.10;;;;;;;;;;5041889;28;20192;-76
2023/07/26 01:02:33;;;;;;;7.43;6.70;;;;;;;;;;5043034;28;20236;-77
2023/07/26 01:04:59;;;;;;;6.80;6.10;;;;;;;;;;5040466;28;20192;-77
2023/07/26 01:07:42;;;;;;;6.50;5.90;;;;;;;;;;5046212;28;20297;-76
2023/07/26 01:10:13;;;;;;;7.23;6.10;;;;;;;;;;5039917;28;20267;-76
2023/07/26 01:12:47;;;;;;;8.43;6.00;;;;;;;;;;5039533;28;20223;-76
2023/07/26 01:15:14;;;;;;;6.07;5.47;;;;;;;;;;5039058;28;20256;-76
2023/07/26 01:17:40;;;;;;;6.23;5.70;;;;;;;;;;5037476;28;20258;-77
2023/07/26 01:20:05;;;;;;;5.13;4.63;;;;;;;;;;5033094;28;20217;-76
2023/07/26 01:22:32;;;;;;;6.97;5.30;;;;;;;;;;5037319;28;20267;-76
2023/07/26 01:24:57;;;;;;;8.73;5.83;;;;;;;;;;5044528;28;20196;-76
2023/07/26 01:27:22;;;;;;;8.10;6.07;;;;;;;;;;5036761;28;20207;-76
2023/07/26 01:29:51;;;;;;;7.07;6.47;;;;;;;;;;5044720;28;20182;-75
2023/07/26 01:32:17;;;;;;;7.87;6.60;;;;;;;;;;5042278;28;20188;-76
2023/07/26 01:34:42;;;;;;;7.83;6.70;;;;;;;;;;5037967;28;20178;-76
2023/07/26 01:37:08;;;;;;;6.60;6.00;;;;;;;;;;5041703;28;20209;-76
2023/07/26 01:39:33;;;;;;;8.13;7.30;;;;;;;;;;5048505;28;20170;-76
2023/07/26 01:41:58;;;;;;;7.90;6.77;;;;;;;;;;5040986;28;20183;-76
2023/07/26 01:44:23;;;;;;;6.77;6.17;;;;;;;;;;5041077;28;20185;-76
2023/07/26 01:46:52;;;;;;;6.83;6.13;;;;;;;;;;5036043;28;20260;-76
2023/07/26 01:49:18;;;;;;;10.63;6.67;;;;;;;;;;5036952;28;20296;-76
2023/07/26 01:51:43;;;;;;;7.80;6.13;;;;;;;;;;5040175;28;20241;-76
2023/07/26 01:54:08;;;;;;;8.00;6.43;;;;;;;;;;5042192;28;20221;-76
2023/07/26 01:56:33;;;;;;;7.20;6.00;;;;;;;;;;5039260;28;20272;-76
2023/07/26 01:58:59;;;;;;;7.57;6.87;;;;;;;;;;5036298;28;20191;-76
2023/07/26 02:01:24;;;;;;;7.27;6.50;;;;;;;;;;5037977;28;20225;-76
2023/07/26 02:03:49;;;;;;;7.60;6.90;;;;;;;;;;5040440;28;20181;-76
2023/07/26 02:06:15;;;;;;;7.23;6.53;;;;;;;;;;5040162;28;20181;-76
2023/07/26 02:08:40;;;;;;;8.33;6.60;;;;;;;;;;5041721;28;20209;-76
2023/07/26 02:11:06;;;;;;;7.77;6.93;;;;;;;;;;5039696;28;20186;-76
2023/07/26 02:13:31;;;;;;;10.90;7.80;;;;;;;;;;5036764;28;20186;-76
2023/07/26 02:15:56;;;;;;;7.40;6.60;;;;;;;;;;5044593;28;20176;-76
2023/07/26 02:18:22;;;;;;;7.60;6.80;;;;;;;;;;5039992;28;20190;-76
2023/07/26 02:20:47;;;;;;;8.97;6.87;;;;;;;;;;5037478;28;20181;-77
2023/07/26 02:23:12;;;;;;;7.73;7.03;;;;;;;;;;5043638;28;20275;-77
2023/07/26 02:25:37;;;;;;;7.37;6.67;;;;;;;;;;5042594;28;20174;-76
2023/07/26 02:28:03;;;;;;;8.80;7.10;;;;;;;;;;5038740;28;20241;-77
2023/07/26 02:30:28;;;;;;;9.63;8.00;;;;;;;;;;5042076;28;20176;-76
2023/07/26 02:32:53;;;;;;;8.87;7.97;;;;;;;;;;5039293;28;20189;-76
2023/07/26 02:35:18;;;;;;;9.50;8.43;;;;;;;;;;5039793;28;20247;-77
2023/07/26 02:37:43;;;;;;;14.27;9.07;;;;;;;;;;5039111;28;20190;-76
2023/07/26 02:40:09;;;;;;;9.37;8.13;;;;;;;;;;5045224;28;20183;-76
2023/07/26 02:42:34;;;;;;;10.20;7.97;;;;;;;;;;5042918;28;20181;-76
2023/07/26 02:44:59;;;;;;;9.93;9.00;;;;;;;;;;5050787;28;20184;-76
2023/07/26 02:47:25;;;;;;;10.33;8.40;;;;;;;;;;5037695;28;20294;-77
2023/07/26 02:49:50;;;;;;;9.83;8.87;;;;;;;;;;5043148;28;20184;-76
2023/07/26 02:52:15;;;;;;;11.37;9.07;;;;;;;;;;5043373;28;20319;-79
2023/07/26 02:54:40;;;;;;;10.43;9.33;;;;;;;;;;5042774;28;20168;-76
2023/07/26 02:57:06;;;;;;;10.70;9.70;;;;;;;;;;5043872;28;20196;-76
2023/07/26 02:59:31;;;;;;;11.50;10.30;;;;;;;;;;5042404;28;20188;-76
2023/07/26 03:01:56;;;;;;;10.87;9.93;;;;;;;;;;5039506;28;20243;-76
2023/07/26 03:04:21;;;;;;;12.13;10.93;;;;;;;;;;5045325;28;20184;-76
2023/07/26 03:06:46;;;;;;;12.43;11.10;;;;;;;;;;5037379;28;20215;-76
2023/07/26 03:09:12;;;;;;;15.10;11.83;;;;;;;;;;5040880;28;20204;-76
2023/07/26 03:11:37;;;;;;;13.67;12.37;;;;;;;;;;5038447;28;20184;-76
2023/07/26 03:14:02;;;;;;;13.73;12.50;;;;;;;;;;5040713;28;20181;-76
2023/07/26 03:16:27;;;;;;;16.53;12.40;;;;;;;;;;5043430;28;20183;-76
2023/07/26 03:18:52;;;;;;;14.07;12.60;;;;;;;;;;5037667;28;20172;-76
2023/07/26 03:21:18;;;;;;;16.03;14.40;;;;;;;;;;5042148;28;20173;-76
2023/07/26 03:23:43;;;;;;;13.87;12.50;;;;;;;;;;5035908;28;20183;-76
2023/07/26 03:26:09;;;;;;;15.53;13.93;;;;;;;;;;5044236;28;20181;-76
2023/07/26 03:28:34;;;;;;;14.90;13.30;;;;;;;;;;5034590;28;20226;-76
2023/07/26 03:31:00;;;;;;;14.30;13.00;;;;;;;;;;5041394;28;20234;-76
2023/07/26 03:33:25;;;;;;;14.00;12.70;;;;;;;;;;5038595;28;20182;-76
2023/07/26 03:35:51;;;;;;;13.37;12.17;;;;;;;;;;5039237;28;20176;-76
2023/07/26 03:38:16;;;;;;;13.73;12.43;;;;;;;;;;5045988;28;20179;-76
2023/07/26 03:40:41;;;;;;;13.77;12.57;;;;;;;;;;5045927;28;20190;-76
2023/07/26 03:43:07;;;;;;;13.67;11.20;;;;;;;;;;5043888;28;20187;-76
2023/07/26 03:45:33;;;;;;;11.63;10.43;;;;;;;;;;5045403;28;20261;-76
2023/07/26 03:47:58;;;;;;;11.80;10.70;;;;;;;;;;5043192;28;20250;-76
2023/07/26 03:50:23;;;;;;;12.03;10.73;;;;;;;;;;5043307;28;20184;-76
2023/07/26 03:52:49;;;;;;;10.57;9.57;;;;;;;;;;5044980;28;20202;-76
2023/07/26 03:55:14;;;;;;;12.03;10.83;;;;;;;;;;5042562;28;20178;-76
2023/07/26 03:57:39;;;;;;;10.83;9.93;;;;;;;;;;5039178;28;20188;-76
2023/07/26 04:00:05;;;;;;;10.80;9.80;;;;;;;;;;5042335;28;20186;-79
2023/07/26 04:02:31;;;;;;;10.87;9.87;;;;;;;;;;5041115;28;20230;-79
2023/07/26 04:04:57;;;;;;;10.73;9.73;;;;;;;;;;5039894;28;20186;-79
2023/07/26 04:07:22;;;;;;;12.10;10.67;;;;;;;;;;5033851;28;20279;-76
2023/07/26 04:09:47;;;;;;;10.90;9.83;;;;;;;;;;5036581;28;20171;-76
2023/07/26 04:12:12;;;;;;;12.53;10.27;;;;;;;;;;5043719;28;20206;-76
2023/07/26 04:14:37;;;;;;;11.20;10.10;;;;;;;;;;5034240;28;20176;-76
2023/07/26 04:17:03;;;;;;;13.03;9.53;;;;;;;;;;5039818;28;20187;-76
2023/07/26 04:19:28;;;;;;;12.63;9.73;;;;;;;;;;5033292;28;20184;-76
2023/07/26 04:21:53;;;;;;;10.47;9.67;;;;;;;;;;5040441;28;20322;-76
2023/07/26 04:24:18;;;;;;;10.87;9.50;;;;;;;;;;5040627;28;20182;-76
2023/07/26 04:26:43;;;;;;;10.77;9.83;;;;;;;;;;5040436;28;20184;-79
2023/07/26 04:29:09;;;;;;;11.33;10.23;;;;;;;;;;5053295;28;20212;-77
2023/07/26 04:31:34;;;;;;;10.23;9.20;;;;;;;;;;5036419;28;20192;-77
2023/07/26 04:33:59;;;;;;;11.57;10.10;;;;;;;;;;5042967;28;20175;-79
2023/07/26 04:36:24;;;;;;;12.03;10.60;;;;;;;;;;5041679;28;20225;-77
2023/07/26 04:38:49;;;;;;;10.07;8.87;;;;;;;;;;5045235;28;20174;-77
2023/07/26 04:41:15;;;;;;;10.27;9.27;;;;;;;;;;5042129;28;20176;-77
2023/07/26 04:43:40;;;;;;;9.03;8.23;;;;;;;;;;5039126;28;20180;-77
2023/07/26 04:46:05;;;;;;;9.37;8.57;;;;;;;;;;5040538;28;20219;-77
2023/07/26 04:48:31;;;;;;;9.17;8.37;;;;;;;;;;5039658;28;20194;-77
2023/07/26 04:50:56;;;;;;;10.00;9.10;;;;;;;;;;5040022;28;20266;-77
2023/07/26 04:53:22;;;;;;;10.77;9.70;;;;;;;;;;5046205;28;20200;-77
2023/07/26 04:55:49;;;;;;;9.40;8.53;;;;;;;;;;5041814;28;20191;-77
2023/07/26 04:58:14;;;;;;;11.03;8.13;;;;;;;;;;5043797;28;20181;-77
2023/07/26 05:00:40;;;;;;;11.37;8.80;;;;;;;;;;5034200;28;20180;-77
2023/07/26 05:03:05;;;;;;;9.27;8.37;;;;;;;;;;5037735;28;20238;-77
2023/07/26 05:05:31;;;;;;;9.50;8.73;;;;;;;;;;5042738;28;20186;-77
2023/07/26 05:07:57;;;;;;;10.23;9.07;;;;;;;;;;5042875;28;20208;-77
2023/07/26 05:10:25;;;;;;;9.50;8.60;;;;;;;;;;5039783;28;20167;-77
2023/07/26 05:12:50;;;;;;;10.20;9.20;;;;;;;;;;5038388;28;20183;-76
2023/07/26 05:15:15;;;;;;;18.60;8.90;;;;;;;;;;5044782;28;20178;-77
2023/07/26 05:17:40;;;;;;;8.90;8.10;;;;;;;;;;5040303;28;20287;-77
2023/07/26 05:20:06;;;;;;;9.80;8.73;;;;;;;;;;5031560;28;20190;-77
2023/07/26 05:22:31;;;;;;;9.07;8.27;;;;;;;;;;5027329;28;20193;-77
2023/07/26 05:24:56;;;;;;;10.93;8.07;;;;;;;;;;5028251;28;20179;-77
2023/07/26 05:27:21;;;;;;;8.77;7.63;;;;;;;;;;5035987;28;20242;-77
2023/07/26 05:29:47;;;;;;;8.53;7.63;;;;;;;;;;5040694;28;20175;-77
2023/07/26 05:32:12;;;;;;;8.67;7.87;;;;;;;;;;5030980;28;20263;-77
2023/07/26 05:34:37;;;;;;;15.47;7.90;;;;;;;;;;5035568;28;20260;-77
2023/07/26 05:37:03;;;;;;;9.03;8.23;;;;;;;;;;5031721;28;20186;-77
2023/07/26 05:39:28;;;;;;;8.00;6.77;;;;;;;;;;5027319;28;20180;-77
2023/07/26 05:41:53;;;;;;;9.30;8.60;;;;;;;;;;5031292;28;20183;-77
2023/07/26 05:44:19;;;;;;;8.53;7.70;;;;;;;;;;5035928;28;20538;-77
2023/07/26 05:46:44;;;;;;;8.87;7.97;;;;;;;;;;5037539;28;20184;-77
2023/07/26 05:49:10;;;;;;;10.53;8.20;;;;;;;;;;5041250;28;20215;-77
2023/07/26 05:51:35;;;;;;;7.97;7.27;;;;;;;;;;5052059;28;20192;-77
2023/07/26 05:54:00;;;;;;;11.87;8.83;;;;;;;;;;5037898;28;20209;-77
2023/07/26 05:56:26;;;;;;;7.77;7.00;;;;;;;;;;5037006;28;20199;-77
2023/07/26 05:58:51;;;;;;;11.77;8.00;;;;;;;;;;5044716;28;20176;-77
2023/07/26 06:01:16;;;;;;;8.57;7.77;;;;;;;;;;5045970;28;20184;-77
2023/07/26 06:03:42;;;;;;;9.20;8.20;;;;;;;;;;5045381;28;20179;-77
2023/07/26 06:06:07;;;;;;;8.50;7.80;;;;;;;;;;5038767;28;20204;-77
2023/07/26 06:08:33;;;;;;;9.23;8.30;;;;;;;;;;5043538;28;20200;-77
2023/07/26 06:10:58;;;;;;;8.93;8.17;;;;;;;;;;5045203;28;20184;-77
2023/07/26 06:13:23;;;;;;;8.30;7.50;;;;;;;;;;5043059;28;20177;-77
2023/07/26 06:15:48;;;;;;;7.17;6.57;;;;;;;;;;5039561;28;20181;-77
2023/07/26 06:18:14;;;;;;;8.40;7.50;;;;;;;;;;5048577;28;20181;-77
2023/07/26 06:20:39;;;;;;;9.07;7.17;;;;;;;;;;5047202;28;20184;-77
2023/07/26 06:23:04;;;;;;;7.00;6.40;;;;;;;;;;5040271;28;20188;-77
2023/07/26 06:25:29;;;;;;;8.20;7.47;;;;;;;;;;5044773;28;20189;-77
2023/07/26 06:27:54;;;;;;;10.00;7.50;;;;;;;;;;5039726;28;20258;-77
2023/07/26 06:30:20;;;;;;;8.43;6.87;;;;;;;;;;5044949;28;20174;-77
2023/07/26 06:32:47;;;;;;;5.60;5.07;;;;;;;;;;5038161;28;20236;-77
2023/07/26 06:35:13;;;;;;;8.97;8.13;;;;;;;;;;5044377;28;20173;-77
2023/07/26 06:37:38;;;;;;;7.30;6.57;;;;;;;;;;5042418;28;20200;-77
2023/07/26 06:40:03;;;;;;;7.03;6.43;;;;;;;;;;5035298;28;20285;-77
2023/07/26 06:42:29;;;;;;;7.13;6.53;;;;;;;;;;5037682;28;20185;-77
2023/07/26 06:44:54;;;;;;;7.47;6.77;;;;;;;;;;5040951;28;20174;-77
2023/07/26 06:47:19;;;;;;;8.73;6.60;;;;;;;;;;5043355;28;20197;-77
2023/07/26 06:49:44;;;;;;;7.73;6.30;;;;;;;;;;5038887;28;20179;-77
2023/07/26 06:52:10;;;;;;;7.30;6.30;;;;;;;;;;5043159;28;20221;-76
2023/07/26 06:54:38;;;;;;;8.60;6.67;;;;;;;;;;5046070;28;20217;-76
2023/07/26 06:57:03;;;;;;;6.47;5.90;;;;;;;;;;5039450;28;20266;-76
2023/07/26 06:59:28;;;;;;;8.10;6.33;;;;;;;;;;5045823;28;20236;-75
2023/07/26 07:01:54;;;;;;;5.60;5.20;;;;;;;;;;5039195;28;20237;-77
2023/07/26 07:04:19;;;;;;;6.57;5.77;;;;;;;;;;5042472;28;20260;-76
2023/07/26 07:06:44;;;;;;;6.53;5.93;;;;;;;;;;5044197;28;20196;-76
2023/07/26 07:09:10;;;;;;;6.13;5.63;;;;;;;;;;5040557;28;20205;-76
2023/07/26 07:11:35;;;;;;;7.63;5.57;;;;;;;;;;5041681;28;20185;-76
2023/07/26 07:14:00;;;;;;;7.03;6.33;;;;;;;;;;5039778;28;20177;-76
2023/07/26 07:16:26;;;;;;;5.80;5.40;;;;;;;;;;5046902;28;20184;-76
2023/07/26 07:18:51;;;;;;;6.50;5.90;;;;;;;;;;5035994;28;20189;-76
2023/07/26 07:21:16;;;;;;;8.13;5.43;;;;;;;;;;5051388;28;20333;-76
2023/07/26 07:23:41;;;;;;;5.37;4.87;;;;;;;;;;5041301;28;20207;-76
2023/07/26 07:26:06;;;;;;;5.77;4.80;;;;;;;;;;5042906;28;20192;-77
2023/07/26 07:28:32;;;;;;;4.97;4.57;;;;;;;;;;5046117;28;20212;-76
2023/07/26 07:30:57;;;;;;;5.30;4.80;;;;;;;;;;5043082;28;20184;-76
2023/07/26 07:33:22;;;;;;;4.97;4.37;;;;;;;;;;5047596;28;20212;-76
2023/07/26 07:35:47;;;;;;;5.10;4.30;;;;;;;;;;5045202;28;20173;-76
2023/07/26 07:38:12;;;;;;;4.87;4.47;;;;;;;;;;5038511;28;20181;-76
2023/07/26 07:40:38;;;;;;;5.93;3.93;;;;;;;;;;5038749;28;20196;-75
2023/07/26 07:43:03;;;;;;;4.33;3.90;;;;;;;;;;5036220;28;20185;-76
2023/07/26 07:45:28;;;;;;;3.37;3.07;;;;;;;;;;5040292;28;20208;-76
2023/07/26 07:47:53;;;;;;;4.93;4.13;;;;;;;;;;5041392;28;20293;-76
2023/07/26 07:50:19;;;;;;;3.60;3.30;;;;;;;;;;5045166;28;20200;-76
2023/07/26 07:52:44;;;;;;;3.83;3.53;;;;;;;;;;5041465;28;20198;-77
2023/07/26 07:55:09;;;;;;;3.73;2.90;;;;;;;;;;5041464;28;20209;-76
2023/07/26 07:57:35;;;;;;;4.07;3.63;;;;;;;;;;5041836;28;20188;-76
2023/07/26 08:00:00;;;;;;;3.40;2.70;;;;;;;;;;5046461;28;20201;-76
2023/07/26 08:02:26;;;;;;;3.37;2.90;;;;;;;;;;5036283;28;20226;-76
2023/07/26 08:04:51;;;;;;;3.20;2.80;;;;;;;;;;5041516;28;20169;-76
2023/07/26 08:07:16;;;;;;;2.90;2.70;;;;;;;;;;5043451;28;20173;-77
2023/07/26 08:09:41;;;;;;;2.67;2.47;;;;;;;;;;5047381;28;20205;-76
2023/07/26 08:12:08;;;;;;;4.10;3.17;;;;;;;;;;5040888;28;20267;-76
2023/07/26 08:14:34;;;;;;;2.57;2.37;;;;;;;;;;5041675;28;20188;-76
2023/07/26 08:16:59;;;;;;;3.00;2.60;;;;;;;;;;5041505;28;20235;-76
2023/07/26 08:19:25;;;;;;;3.17;2.87;;;;;;;;;;5046239;28;20185;-77
2023/07/26 08:21:50;;;;;;;2.17;2.07;;;;;;;;;;5038649;28;20243;-77
2023/07/26 08:24:15;;;;;;;2.57;2.37;;;;;;;;;;5044090;28;20169;-76
2023/07/26 08:26:41;;;;;;;2.80;2.60;;;;;;;;;;5044469;28;20180;-77
2023/07/26 08:29:06;;;;;;;3.30;2.53;;;;;;;;;;5044427;28;20286;-77
2023/07/26 08:31:31;;;;;;;2.70;2.50;;;;;;;;;;5039405;28;20173;-77
2023/07/26 08:33:56;;;;;;;2.73;2.53;;;;;;;;;;5041304;28;20182;-77
2023/07/26 08:36:22;;;;;;;2.80;2.60;;;;;;;;;;5036789;28;20177;-76
2023/07/26 08:38:47;;;;;;;2.50;2.30;;;;;;;;;;5041594;28;20174;-77
2023/07/26 08:41:12;;;;;;;2.63;2.43;;;;;;;;;;5035051;28;20181;-76
2023/07/26 08:43:39;;;;;;;2.57;2.37;;;;;;;;;;5037731;28;20186;-76
2023/07/26 08:46:06;;;;;;;3.27;2.10;;;;;;;;;;5045068;28;20260;-75
2023/07/26 08:48:32;;;;;;;4.97;2.20;;;;;;;;;;5045697;28;20203;-75
2023/07/26 08:50:57;;;;;;;2.20;1.90;;;;;;;;;;5040919;28;20167;-75
2023/07/26 08:53:22;;;;;;;2.00;1.90;;;;;;;;;;5048249;28;20192;-75
2023/07/26 08:55:48;;;;;;;2.03;1.90;;;;;;;;;;5039826;28;20191;-76
2023/07/26 08:58:13;;;;;;;2.73;2.40;;;;;;;;;;5041966;28;20286;-76
2023/07/26 09:00:39;;;;;;;2.60;2.40;;;;;;;;;;5037322;28;20174;-76
2023/07/26 09:03:06;;;;;;;2.77;2.23;;;;;;;;;;5042497;28;20235;-76
2023/07/26 09:05:31;;;;;;;2.30;2.10;;;;;;;;;;5041456;28;20224;-76
2023/07/26 09:07:57;;;;;;;2.47;2.27;;;;;;;;;;5045987;28;20204;-76
2023/07/26 09:10:23;;;;;;;2.63;2.30;;;;;;;;;;5039539;28;20174;-76
2023/07/26 09:12:50;;;;;;;3.07;2.73;;;;;;;;;;5042220;28;20169;-76
2023/07/26 09:15:15;;;;;;;2.50;2.30;;;;;;;;;;5041665;28;20174;-76
2023/07/26 09:17:41;;;;;;;4.63;3.27;;;;;;;;;;5041902;28;20198;-75
2023/07/26 09:20:19;;;;;;;2.70;2.50;;;;;;;;;;5037331;28;20210;-76
2023/07/26 09:22:44;;;;;;;3.10;2.80;;;;;;;;;;5037192;28;20178;-76
2023/07/26 09:25:09;;;;;;;3.20;2.90;;;;;;;;;;5045827;28;20205;-74
2023/07/26 09:27:50;;;;;;;3.40;3.10;;;;;;;;;;5037683;28;20177;-74
2023/07/26 09:30:19;;;;;;;3.20;2.50;;;;;;;;;;5049261;28;20242;-75
2023/07/26 09:32:44;;;;;;;3.20;2.77;;;;;;;;;;5032034;28;20177;-75
2023/07/26 09:35:09;;;;;;;2.37;2.17;;;;;;;;;;5040980;28;20183;-75
2023/07/26 09:37:35;;;;;;;3.70;3.40;;;;;;;;;;5031909;28;20182;-75
2023/07/26 09:40:01;;;;;;;4.90;3.00;;;;;;;;;;5046039;28;20263;-76
2023/07/26 09:42:40;;;;;;;4.63;4.20;;;;;;;;;;5040857;28;20189;-76
2023/07/26 09:45:06;;;;;;;5.17;4.10;;;;;;;;;;5044472;28;20177;-75
2023/07/26 09:47:35;;;;;;;5.17;4.77;;;;;;;;;;5037320;28;20204;-76
2023/07/26 09:50:00;;;;;;;6.60;5.67;;;;;;;;;;5042322;28;20170;-76
2023/07/26 09:52:26;;;;;;;4.10;3.80;;;;;;;;;;5041473;28;20223;-76
2023/07/26 09:54:52;;;;;;;5.83;5.33;;;;;;;;;;5043297;28;20173;-76
2023/07/26 09:57:20;;;;;;;7.53;5.20;;;;;;;;;;5042203;28;20162;-76
2023/07/26 09:59:47;;;;;;;5.93;5.07;;;;;;;;;;5040890;28;20170;-76
2023/07/26 10:02:13;;;;;;;5.20;4.80;;;;;;;;;;5034581;28;20285;-76
2023/07/26 10:04:44;;;;;;;4.63;4.23;;;;;;;;;;5042761;28;20182;-76
2023/07/26 10:07:11;;;;;;;3.57;3.27;;;;;;;;;;5038899;28;20185;-76
2023/07/26 10:09:39;;;;;;;4.37;3.97;;;;;;;;;;5044424;28;20217;-76
2023/07/26 10:12:05;;;;;;;3.50;3.30;;;;;;;;;;5039244;28;20193;-76
2023/07/26 10:14:31;;;;;;;4.50;4.10;;;;;;;;;;5043054;28;20175;-76
2023/07/26 10:16:58;;;;;;;3.47;3.17;;;;;;;;;;5044475;28;20181;-76
2023/07/26 10:19:23;;;;;;;5.03;3.40;;;;;;;;;;5041885;28;20236;-76
2023/07/26 10:21:50;;;;;;;3.43;3.10;;;;;;;;;;5043341;28;20206;-76
2023/07/26 10:24:16;;;;;;;4.60;3.30;;;;;;;;;;5040151;28;20180;-76
2023/07/26 10:26:42;;;;;;;4.83;3.53;;;;;;;;;;5040315;28;20532;-76
2023/07/26 10:29:08;;;;;;;4.17;3.80;;;;;;;;;;5040996;28;20204;-76
2023/07/26 10:31:34;;;;;;;4.60;3.90;;;;;;;;;;5041741;28;20177;-77
2023/07/26 10:33:59;;;;;;;4.10;3.70;;;;;;;;;;5048812;28;20174;-76
2023/07/26 10:36:28;;;;;;;4.60;3.40;;;;;;;;;;5045785;28;20209;-76
2023/07/26 10:38:53;;;;;;;3.70;3.40;;;;;;;;;;5044039;28;20204;-76
2023/07/26 10:41:22;;;;;;;3.80;3.40;;;;;;;;;;5048103;28;20233;-76
2023/07/26 10:43:48;;;;;;;4.77;3.47;;;;;;;;;;5042646;28;20181;-76
2023/07/26 10:46:15;;;;;;;3.60;3.30;;;;;;;;;;5046226;28;20175;-76
2023/07/26 10:48:40;;;;;;;3.97;3.47;;;;;;;;;;5049844;28;20198;-76
2023/07/26 10:51:25;;;;;;;3.57;3.20;;;;;;;;;;5044795;28;20261;-76
2023/07/26 10:53:52;;;;;;;3.83;3.43;;;;;;;;;;5045435;28;20200;-76
2023/07/26 10:56:23;;;;;;;3.47;3.10;;;;;;;;;;5045635;28;20170;-76
2023/07/26 10:58:50;;;;;;;3.33;3.03;;;;;;;;;;5040715;28;20173;-76
2023/07/26 11:01:31;;;;;;;3.50;3.20;;;;;;;;;;5041307;28;20199;-76
2023/07/26 11:03:57;;;;;;;3.70;3.10;;;;;;;;;;5050092;28;20186;-76
2023/07/26 11:06:22;;;;;;;4.13;3.30;;;;;;;;;;5049291;28;20178;-77
2023/07/26 11:08:50;;;;;;;5.30;3.00;;;;;;;;;;5042181;28;20207;-76
2023/07/26 11:11:17;;;;;;;5.43;3.43;;;;;;;;;;5045709;28;20182;-76
2023/07/26 11:13:42;;;;;;;3.80;3.40;;;;;;;;;;5040542;28;20213;-76
2023/07/26 11:16:07;;;;;;;3.57;3.27;;;;;;;;;;5044082;28;20182;-77
2023/07/26 11:18:38;;;;;;;3.80;3.27;;;;;;;;;;5041837;28;20187;-76
2023/07/26 11:21:03;;;;;;;4.77;3.33;;;;;;;;;;5040745;28;20256;-76
2023/07/26 11:23:29;;;;;;;3.63;3.20;;;;;;;;;;5036255;28;20256;-77
2023/07/26 11:25:55;;;;;;;3.77;3.40;;;;;;;;;;5046495;28;20176;-76
2023/07/26 11:28:21;;;;;;;4.37;3.60;;;;;;;;;;5038403;28;20201;-77
2023/07/26 11:30:51;;;;;;;3.73;3.40;;;;;;;;;;5042621;28;20180;-76
2023/07/26 11:33:26;;;;;;;3.57;2.63;;;;;;;;;;5044488;28;20192;-76
2023/07/26 11:35:51;;;;;;;5.73;3.20;;;;;;;;;;5036948;28;20237;-77
2023/07/26 11:38:16;;;;;;;3.10;2.80;;;;;;;;;;5038577;28;20301;-77
2023/07/26 11:40:42;;;;;;;4.87;2.83;;;;;;;;;;5041455;28;20174;-77
2023/07/26 11:43:08;;;;;;;3.27;2.97;;;;;;;;;;5041175;28;20187;-76
2023/07/26 11:45:35;;;;;;;4.20;3.60;;;;;;;;;;5043477;28;20182;-76
2023/07/26 11:48:00;;;;;;;4.30;3.23;;;;;;;;;;5050262;28;20201;-77
2023/07/26 11:50:26;;;;;;;3.87;2.97;;;;;;;;;;5042590;28;20187;-77
2023/07/26 11:53:04;;;;;;;3.20;2.90;;;;;;;;;;5046706;28;20287;-77
2023/07/26 11:55:29;;;;;;;6.27;3.50;;;;;;;;;;5044992;28;20183;-76
2023/07/26 11:57:55;;;;;;;3.37;2.90;;;;;;;;;;5042213;28;20182;-75
2023/07/26 12:00:20;;;;;;;3.87;3.10;;;;;;;;;;5039988;28;20269;-76
2023/07/26 12:02:46;;;;;;;3.40;3.10;;;;;;;;;;5043131;28;20397;-76
2023/07/26 12:05:14;;;;;;;4.17;3.50;;;;;;;;;;5041065;28;20193;-76
2023/07/26 12:07:43;;;;;;;3.83;3.17;;;;;;;;;;5045221;28;20260;-76
2023/07/26 12:10:09;;;;;;;5.80;4.43;;;;;;;;;;5038805;28;20190;-76
2023/07/26 12:12:41;;;;;;;5.30;3.60;;;;;;;;;;5037522;28;20231;-76
2023/07/26 12:15:10;;;;;;;14.07;4.17;;;;;;;;;;5034223;28;20255;-78
2023/07/26 12:17:35;;;;;;;4.03;3.73;;;;;;;;;;5035486;28;20171;-77
2023/07/26 12:20:04;;;;;;;3.97;3.57;;;;;;;;;;5035635;28;20207;-77
2023/07/26 12:22:29;;;;;;;4.23;3.53;;;;;;;;;;5042895;28;20219;-77
2023/07/26 12:24:59;;;;;;;6.87;3.97;;;;;;;;;;5039597;28;20301;-76
2023/07/26 12:27:24;;;;;;;4.93;3.57;;;;;;;;;;5042776;28;20187;-77
2023/07/26 12:29:49;;;;;;;4.20;3.47;;;;;;;;;;5037600;28;20202;-77
2023/07/26 12:32:15;;;;;;;5.67;3.63;;;;;;;;;;5038326;28;20265;-77
2023/07/26 12:34:42;;;;;;;4.73;3.23;;;;;;;;;;5038760;28;20174;-78
2023/07/26 12:37:08;;;;;;;3.63;3.33;;;;;;;;;;5042140;28;20186;-77
2023/07/26 12:39:33;;;;;;;4.30;3.43;;;;;;;;;;5044087;28;20268;-77
2023/07/26 12:41:58;;;;;;;3.50;3.20;;;;;;;;;;5043558;28;20168;-80
2023/07/26 12:44:26;;;;;;;3.40;3.10;;;;;;;;;;5038129;28;20246;-80
2023/07/26 12:46:51;;;;;;;5.17;3.33;;;;;;;;;;5041518;28;20176;-79
2023/07/26 12:49:16;;;;;;;3.90;3.27;;;;;;;;;;5041810;28;20302;-79
2023/07/26 12:51:41;;;;;;;3.97;3.10;;;;;;;;;;5036905;28;20172;-77
2023/07/26 12:54:07;;;;;;;5.47;3.57;;;;;;;;;;5042762;28;20208;-78
2023/07/26 12:56:32;;;;;;;6.47;3.37;;;;;;;;;;5034021;28;20171;-78
2023/07/26 12:58:57;;;;;;;6.37;3.30;;;;;;;;;;5038137;28;20182;-79
2023/07/26 13:01:22;;;;;;;9.33;3.37;;;;;;;;;;5046614;28;20175;-78
2023/07/26 13:03:48;;;;;;;5.20;3.10;;;;;;;;;;5035257;28;20175;-78
2023/07/26 13:06:13;;;;;;;7.17;4.03;;;;;;;;;;5039660;28;20255;-78
2023/07/26 13:08:38;;;;;;;3.77;3.43;;;;;;;;;;5040775;28;20209;-78
2023/07/26 13:11:04;;;;;;;3.67;3.13;;;;;;;;;;5037253;28;20262;-78
2023/07/26 13:13:29;;;;;;;5.03;3.20;;;;;;;;;;5038689;28;20182;-78
2023/07/26 13:15:55;;;;;;;4.10;3.37;;;;;;;;;;5040797;28;20168;-79
2023/07/26 13:18:20;;;;;;;3.60;3.30;;;;;;;;;;5040377;28;20175;-78
2023/07/26 13:20:45;;;;;;;6.23;3.53;;;;;;;;;;5034791;28;20223;-78
2023/07/26 13:23:11;;;;;;;3.70;2.80;;;;;;;;;;5039105;28;20179;-79
2023/07/26 13:25:37;;;;;;;4.23;3.33;;;;;;;;;;5047250;28;20183;-78
2023/07/26 13:28:02;;;;;;;4.10;3.70;;;;;;;;;;5040360;28;20202;-78
2023/07/26 13:30:27;;;;;;;5.40;3.57;;;;;;;;;;5043800;28;20182;-78
2023/07/26 13:32:52;;;;;;;5.20;3.40;;;;;;;;;;5039718;28;20184;-78
2023/07/26 13:35:18;;;;;;;5.63;3.63;;;;;;;;;;5042536;28;20183;-77
2023/07/26 13:37:43;;;;;;;4.20;3.00;;;;;;;;;;5042614;28;20265;-77
2023/07/26 13:40:08;;;;;;;5.17;3.30;;;;;;;;;;5038505;28;20217;-78
2023/07/26 13:42:33;;;;;;;5.70;3.50;;;;;;;;;;5042924;28;20264;-77
2023/07/26 13:45:00;;;;;;;3.90;3.13;;;;;;;;;;5045766;28;20172;-77
2023/07/26 13:47:26;;;;;;;5.43;3.90;;;;;;;;;;5037145;28;20202;-78
2023/07/26 13:49:51;;;;;;;3.40;3.10;;;;;;;;;;5040450;28;20202;-78
2023/07/26 13:52:16;;;;;;;3.87;3.00;;;;;;;;;;5047735;28;20182;-78
2023/07/26 13:54:42;;;;;;;3.93;3.10;;;;;;;;;;5045282;28;20184;-77
2023/07/26 13:57:08;;;;;;;5.93;2.90;;;;;;;;;;5041668;28;20210;-78
2023/07/26 13:59:36;;;;;;;5.00;3.07;;;;;;;;;;5040735;28;20181;-77
2023/07/26 14:02:02;;;;;;;4.07;3.30;;;;;;;;;;5047738;28;20237;-77
2023/07/26 14:04:28;;;;;;;3.53;3.20;;;;;;;;;;5049617;28;20233;-78
2023/07/26 14:06:54;;;;;;;4.47;3.03;;;;;;;;;;5047180;28;20277;-78
2023/07/26 14:09:19;;;;;;;3.67;3.20;;;;;;;;;;5051594;28;20272;-78
2023/07/26 14:11:45;;;;;;;3.23;2.87;;;;;;;;;;5040293;28;20324;-78
2023/07/26 14:14:10;;;;;;;5.40;3.10;;;;;;;;;;5050092;28;20192;-79
2023/07/26 14:16:35;;;;;;;6.90;3.87;;;;;;;;;;5046051;28;20181;-78
2023/07/26 14:19:00;;;;;;;3.60;2.90;;;;;;;;;;5051837;28;20189;-78
2023/07/26 14:21:26;;;;;;;4.70;3.60;;;;;;;;;;5043541;28;20277;-78
2023/07/26 14:23:51;;;;;;;3.40;3.00;;;;;;;;;;5046814;28;20373;-78
2023/07/26 14:26:16;;;;;;;3.80;3.37;;;;;;;;;;5035604;28;20248;-78
2023/07/26 14:28:41;;;;;;;5.60;3.70;;;;;;;;;;5044411;28;20280;-78
2023/07/26 14:31:07;;;;;;;5.13;3.30;;;;;;;;;;5044614;28;20181;-77